sensor_id;sensor_type;location;lat;lon;timestamp;pressure;altitude;pressure_sealevel;temperature;humidity
53340;BME280;46212;50.258;19.062;2023-02-19T00:00:57;98252.78;;;6.66;93.72
53340;BME280;46212;50.258;19.062;2023-02-19T00:03:23;98261.56;;;6.61;93.75
53340;BME280;46212;50.258;19.062;2023-02-19T00:05:49;98253.09;;;6.55;93.87
53340;BME280;46212;50.258;19.062;2023-02-19T00:08:14;98260.69;;;6.64;93.48
53340;BME280;46212;50.258;19.062;2023-02-19T00:10:39;98255.94;;;6.52;93.92
53340;BME280;46212;50.258;19.062;2023-02-19T00:13:05;98248.47;;;6.39;94.82
53340;BME280;46212;50.258;19.062;2023-02-19T00:15:31;98247.69;;;6.39;95.07
53340;BME280;46212;50.258;19.062;2023-02-19T00:17:57;98244.47;;;6.28;95.16
53340;BME280;46212;50.258;19.062;2023-02-19T00:20:22;98229.56;;;6.29;95.64
53340;BME280;46212;50.258;19.062;2023-02-19T00:22:49;98254.06;;;6.36;95.87
53340;BME280;46212;50.258;19.062;2023-02-19T00:25:15;98236.59;;;6.30;96.63
53340;BME280;46212;50.258;19.062;2023-02-19T00:27:40;98247.72;;;6.52;95.98
53340;BME280;46212;50.258;19.062;2023-02-19T00:30:06;98255.94;;;6.39;96.93
53340;BME280;46212;50.258;19.062;2023-02-19T00:32:32;98237.50;;;6.52;97.24
53340;BME280;46212;50.258;19.062;2023-02-19T00:34:57;98248.38;;;6.43;97.24
53340;BME280;46212;50.258;19.062;2023-02-19T00:37:23;98235.47;;;6.15;98.24
53340;BME280;46212;50.258;19.062;2023-02-19T00:39:48;98246.28;;;6.47;99.32
53340;BME280;46212;50.258;19.062;2023-02-19T00:42:14;98244.09;;;6.42;100.00
53340;BME280;46212;50.258;19.062;2023-02-19T00:44:39;98245.38;;;6.37;99.93
53340;BME280;46212;50.258;19.062;2023-02-19T00:47:04;98240.13;;;6.43;99.66
53340;BME280;46212;50.258;19.062;2023-02-19T00:49:30;98226.06;;;6.28;99.76
53340;BME280;46212;50.258;19.062;2023-02-19T00:51:55;98238.63;;;6.13;100.00
53340;BME280;46212;50.258;19.062;2023-02-19T00:54:21;98231.91;;;6.30;99.32
53340;BME280;46212;50.258;19.062;2023-02-19T00:56:47;98239.31;;;6.17;97.96
53340;BME280;46212;50.258;19.062;2023-02-19T00:59:13;98230.59;;;6.06;98.54
53340;BME280;46212;50.258;19.062;2023-02-19T01:01:39;98243.66;;;6.02;99.06
53340;BME280;46212;50.258;19.062;2023-02-19T01:04:05;98229.19;;;6.02;98.57
53340;BME280;46212;50.258;19.062;2023-02-19T01:06:30;98243.25;;;6.16;97.74
53340;BME280;46212;50.258;19.062;2023-02-19T01:08:57;98239.75;;;6.28;97.36
53340;BME280;46212;50.258;19.062;2023-02-19T01:11:23;98236.38;;;6.24;98.08
53340;BME280;46212;50.258;19.062;2023-02-19T01:13:48;98222.78;;;6.21;98.29
53340;BME280;46212;50.258;19.062;2023-02-19T01:16:21;98218.38;;;6.23;98.57
53340;BME280;46212;50.258;19.062;2023-02-19T01:18:49;98224.63;;;6.24;99.11
53340;BME280;46212;50.258;19.062;2023-02-19T01:21:22;98211.47;;;5.90;100.00
53340;BME280;46212;50.258;19.062;2023-02-19T01:23:49;98216.00;;;5.97;100.00
53340;BME280;46212;50.258;19.062;2023-02-19T01:26:17;98211.66;;;5.99;100.00
53340;BME280;46212;50.258;19.062;2023-02-19T01:28:43;98218.59;;;6.16;100.00
53340;BME280;46212;50.258;19.062;2023-02-19T01:31:13;98210.00;;;6.02;100.00
53340;BME280;46212;50.258;19.062;2023-02-19T01:33:42;98203.88;;;5.81;100.00
53340;BME280;46212;50.258;19.062;2023-02-19T01:36:09;98207.44;;;5.95;100.00
53340;BME280;46212;50.258;19.062;2023-02-19T01:38:35;98197.09;;;6.15;100.00
53340;BME280;46212;50.258;19.062;2023-02-19T01:41:03;98200.72;;;6.12;100.00
53340;BME280;46212;50.258;19.062;2023-02-19T01:43:31;98197.72;;;6.06;100.00
53340;BME280;46212;50.258;19.062;2023-02-19T01:45:56;98198.06;;;6.08;100.00
53340;BME280;46212;50.258;19.062;2023-02-19T01:48:22;98188.28;;;5.95;100.00
53340;BME280;46212;50.258;19.062;2023-02-19T01:50:56;98191.88;;;5.92;100.00
53340;BME280;46212;50.258;19.062;2023-02-19T01:53:27;98176.25;;;6.05;100.00
53340;BME280;46212;50.258;19.062;2023-02-19T01:55:57;98189.75;;;6.24;100.00
53340;BME280;46212;50.258;19.062;2023-02-19T01:58:25;98188.88;;;6.15;100.00
53340;BME280;46212;50.258;19.062;2023-02-19T02:00:53;98181.28;;;6.06;100.00
53340;BME280;46212;50.258;19.062;2023-02-19T02:03:18;98170.75;;;6.05;100.00
53340;BME280;46212;50.258;19.062;2023-02-19T02:06:12;98171.16;;;5.91;100.00
53340;BME280;46212;50.258;19.062;2023-02-19T02:08:40;98177.91;;;6.15;100.00
53340;BME280;46212;50.258;19.062;2023-02-19T02:11:25;98171.44;;;6.09;100.00
53340;BME280;46212;50.258;19.062;2023-02-19T02:13:51;98167.16;;;6.20;100.00
53340;BME280;46212;50.258;19.062;2023-02-19T02:16:23;98148.91;;;5.88;100.00
53340;BME280;46212;50.258;19.062;2023-02-19T02:21:48;98161.56;;;6.11;100.00
53340;BME280;46212;50.258;19.062;2023-02-19T02:27:38;98162.84;;;5.94;100.00
53340;BME280;46212;50.258;19.062;2023-02-19T02:30:25;98159.88;;;5.88;100.00
53340;BME280;46212;50.258;19.062;2023-02-19T02:35:50;98150.78;;;5.92;100.00
53340;BME280;46212;50.258;19.062;2023-02-19T02:38:19;98138.09;;;5.81;100.00
53340;BME280;46212;50.258;19.062;2023-02-19T02:40:46;98137.97;;;6.01;100.00
53340;BME280;46212;50.258;19.062;2023-02-19T02:43:12;98141.28;;;6.21;100.00
53340;BME280;46212;50.258;19.062;2023-02-19T02:45:38;98133.47;;;6.07;100.00
53340;BME280;46212;50.258;19.062;2023-02-19T02:48:17;98130.59;;;5.85;100.00
53340;BME280;46212;50.258;19.062;2023-02-19T02:53:18;98144.66;;;6.13;100.00
53340;BME280;46212;50.258;19.062;2023-02-19T02:56:03;98133.34;;;5.98;100.00
53340;BME280;46212;50.258;19.062;2023-02-19T02:58:30;98138.50;;;5.96;100.00
53340;BME280;46212;50.258;19.062;2023-02-19T03:01:01;98134.56;;;5.97;100.00
53340;BME280;46212;50.258;19.062;2023-02-19T03:03:47;98125.13;;;5.98;100.00
53340;BME280;46212;50.258;19.062;2023-02-19T03:06:18;98113.56;;;5.78;100.00
53340;BME280;46212;50.258;19.062;2023-02-19T03:08:56;98125.13;;;5.85;100.00
53340;BME280;46212;50.258;19.062;2023-02-19T03:11:24;98121.19;;;5.86;100.00
53340;BME280;46212;50.258;19.062;2023-02-19T03:14:17;98130.28;;;5.96;100.00
53340;BME280;46212;50.258;19.062;2023-02-19T03:17:23;98124.91;;;5.93;100.00
53340;BME280;46212;50.258;19.062;2023-02-19T03:20:11;98133.06;;;6.09;100.00
53340;BME280;46212;50.258;19.062;2023-02-19T03:22:39;98132.28;;;6.08;100.00
53340;BME280;46212;50.258;19.062;2023-02-19T03:25:10;98119.34;;;5.67;100.00
53340;BME280;46212;50.258;19.062;2023-02-19T03:27:57;98127.66;;;5.93;100.00
53340;BME280;46212;50.258;19.062;2023-02-19T03:30:28;98121.28;;;5.96;100.00
53340;BME280;46212;50.258;19.062;2023-02-19T03:35:26;98135.00;;;5.96;100.00
53340;BME280;46212;50.258;19.062;2023-02-19T03:40:53;98134.31;;;5.92;100.00
53340;BME280;46212;50.258;19.062;2023-02-19T03:43:25;98114.22;;;5.82;100.00
53340;BME280;46212;50.258;19.062;2023-02-19T03:48:34;98132.31;;;5.79;100.00
53340;BME280;46212;50.258;19.062;2023-02-19T03:51:23;98129.09;;;5.68;100.00
53340;BME280;46212;50.258;19.062;2023-02-19T03:54:17;98131.53;;;5.79;100.00
53340;BME280;46212;50.258;19.062;2023-02-19T03:56:56;98115.88;;;5.79;100.00
53340;BME280;46212;50.258;19.062;2023-02-19T03:59:37;98123.47;;;5.88;100.00
53340;BME280;46212;50.258;19.062;2023-02-19T04:02:13;98116.63;;;5.80;100.00
53340;BME280;46212;50.258;19.062;2023-02-19T04:04:53;98116.06;;;5.72;100.00
53340;BME280;46212;50.258;19.062;2023-02-19T04:07:21;98104.03;;;5.82;100.00
53340;BME280;46212;50.258;19.062;2023-02-19T04:09:47;98108.75;;;5.82;100.00
53340;BME280;46212;50.258;19.062;2023-02-19T04:12:15;98100.03;;;5.58;100.00
53340;BME280;46212;50.258;19.062;2023-02-19T04:15:05;98098.63;;;5.66;100.00
53340;BME280;46212;50.258;19.062;2023-02-19T04:18:04;98120.88;;;5.68;100.00
53340;BME280;46212;50.258;19.062;2023-02-19T04:20:43;98087.78;;;5.63;100.00
53340;BME280;46212;50.258;19.062;2023-02-19T04:23:10;98088.97;;;5.62;100.00
53340;BME280;46212;50.258;19.062;2023-02-19T04:25:37;98103.31;;;5.53;100.00
53340;BME280;46212;50.258;19.062;2023-02-19T04:28:03;98101.88;;;5.61;100.00
53340;BME280;46212;50.258;19.062;2023-02-19T04:30:29;98094.69;;;5.67;100.00
53340;BME280;46212;50.258;19.062;2023-02-19T04:32:54;98100.47;;;5.57;100.00
53340;BME280;46212;50.258;19.062;2023-02-19T04:35:19;98101.63;;;5.43;100.00
53340;BME280;46212;50.258;19.062;2023-02-19T04:37:45;98095.88;;;5.66;100.00
53340;BME280;46212;50.258;19.062;2023-02-19T04:40:10;98073.41;;;5.59;100.00
53340;BME280;46212;50.258;19.062;2023-02-19T04:42:36;98081.53;;;5.62;100.00
53340;BME280;46212;50.258;19.062;2023-02-19T04:45:01;98085.06;;;5.75;100.00
53340;BME280;46212;50.258;19.062;2023-02-19T04:47:27;98079.41;;;5.95;100.00
53340;BME280;46212;50.258;19.062;2023-02-19T04:49:52;98066.59;;;5.92;100.00
53340;BME280;46212;50.258;19.062;2023-02-19T04:52:17;98058.94;;;5.71;100.00
53340;BME280;46212;50.258;19.062;2023-02-19T04:54:43;98040.09;;;5.48;100.00
53340;BME280;46212;50.258;19.062;2023-02-19T04:57:08;98052.63;;;5.74;100.00
53340;BME280;46212;50.258;19.062;2023-02-19T04:59:34;98052.28;;;5.84;100.00
53340;BME280;46212;50.258;19.062;2023-02-19T05:01:59;98029.53;;;5.87;100.00
53340;BME280;46212;50.258;19.062;2023-02-19T05:04:24;98034.22;;;5.87;100.00
53340;BME280;46212;50.258;19.062;2023-02-19T05:06:50;98020.50;;;5.74;100.00
53340;BME280;46212;50.258;19.062;2023-02-19T05:09:15;98018.09;;;5.76;100.00
53340;BME280;46212;50.258;19.062;2023-02-19T05:11:41;98020.28;;;5.81;100.00
53340;BME280;46212;50.258;19.062;2023-02-19T05:14:06;97998.81;;;5.55;100.00
53340;BME280;46212;50.258;19.062;2023-02-19T05:16:32;98014.41;;;6.08;100.00
53340;BME280;46212;50.258;19.062;2023-02-19T05:18:58;98028.13;;;5.96;100.00
53340;BME280;46212;50.258;19.062;2023-02-19T05:21:23;98012.56;;;5.93;100.00
53340;BME280;46212;50.258;19.062;2023-02-19T05:23:49;98021.50;;;5.93;100.00
53340;BME280;46212;50.258;19.062;2023-02-19T05:26:17;98018.63;;;5.84;100.00
53340;BME280;46212;50.258;19.062;2023-02-19T05:28:45;98005.63;;;5.88;100.00
53340;BME280;46212;50.258;19.062;2023-02-19T05:31:11;98005.63;;;5.88;100.00
53340;BME280;46212;50.258;19.062;2023-02-19T05:33:36;97995.31;;;6.05;100.00
53340;BME280;46212;50.258;19.062;2023-02-19T05:36:10;98001.34;;;5.87;100.00
53340;BME280;46212;50.258;19.062;2023-02-19T05:38:37;98017.16;;;5.96;100.00
53340;BME280;46212;50.258;19.062;2023-02-19T05:41:16;98007.56;;;5.75;100.00
53340;BME280;46212;50.258;19.062;2023-02-19T05:43:44;98020.44;;;5.91;100.00
53340;BME280;46212;50.258;19.062;2023-02-19T05:46:11;98024.50;;;6.11;100.00
53340;BME280;46212;50.258;19.062;2023-02-19T05:48:37;98030.28;;;6.01;100.00
53340;BME280;46212;50.258;19.062;2023-02-19T05:51:04;98022.38;;;6.15;100.00
53340;BME280;46212;50.258;19.062;2023-02-19T05:53:31;98038.59;;;6.35;100.00
53340;BME280;46212;50.258;19.062;2023-02-19T05:55:57;98001.56;;;6.18;100.00
53340;BME280;46212;50.258;19.062;2023-02-19T05:58:22;98027.22;;;6.24;100.00
53340;BME280;46212;50.258;19.062;2023-02-19T06:00:48;98007.94;;;6.15;100.00
53340;BME280;46212;50.258;19.062;2023-02-19T06:03:14;97998.75;;;5.96;100.00
53340;BME280;46212;50.258;19.062;2023-02-19T06:05:39;98005.16;;;6.27;100.00
53340;BME280;46212;50.258;19.062;2023-02-19T06:08:05;97997.63;;;6.06;100.00
53340;BME280;46212;50.258;19.062;2023-02-19T06:10:30;98005.41;;;6.20;100.00
53340;BME280;46212;50.258;19.062;2023-02-19T06:12:55;98019.06;;;6.46;100.00
53340;BME280;46212;50.258;19.062;2023-02-19T06:15:21;98021.63;;;6.27;100.00
53340;BME280;46212;50.258;19.062;2023-02-19T06:17:47;98019.19;;;6.29;100.00
53340;BME280;46212;50.258;19.062;2023-02-19T06:20:12;98025.25;;;6.12;100.00
53340;BME280;46212;50.258;19.062;2023-02-19T06:22:38;98019.75;;;6.24;100.00
53340;BME280;46212;50.258;19.062;2023-02-19T06:25:04;98024.25;;;6.31;100.00
53340;BME280;46212;50.258;19.062;2023-02-19T06:27:32;98030.94;;;6.17;100.00
53340;BME280;46212;50.258;19.062;2023-02-19T06:29:57;98015.69;;;6.16;100.00
53340;BME280;46212;50.258;19.062;2023-02-19T06:32:23;98020.84;;;6.27;100.00
53340;BME280;46212;50.258;19.062;2023-02-19T06:34:48;98015.47;;;6.23;100.00
53340;BME280;46212;50.258;19.062;2023-02-19T06:37:14;98013.41;;;6.15;100.00
53340;BME280;46212;50.258;19.062;2023-02-19T06:39:39;98020.09;;;6.26;100.00
53340;BME280;46212;50.258;19.062;2023-02-19T06:42:05;97999.69;;;6.27;100.00
53340;BME280;46212;50.258;19.062;2023-02-19T06:44:30;97998.81;;;6.30;100.00
53340;BME280;46212;50.258;19.062;2023-02-19T06:46:56;98005.16;;;6.40;100.00
53340;BME280;46212;50.258;19.062;2023-02-19T06:49:21;97999.97;;;6.42;100.00
53340;BME280;46212;50.258;19.062;2023-02-19T06:51:47;97975.22;;;6.33;100.00
53340;BME280;46212;50.258;19.062;2023-02-19T06:54:12;98002.94;;;6.35;100.00
53340;BME280;46212;50.258;19.062;2023-02-19T06:56:39;97990.88;;;6.32;100.00
53340;BME280;46212;50.258;19.062;2023-02-19T06:59:07;97991.00;;;6.29;100.00
53340;BME280;46212;50.258;19.062;2023-02-19T07:01:34;97996.38;;;6.32;100.00
53340;BME280;46212;50.258;19.062;2023-02-19T07:04:00;98001.78;;;6.23;100.00
53340;BME280;46212;50.258;19.062;2023-02-19T07:06:26;97994.09;;;6.31;100.00
53340;BME280;46212;50.258;19.062;2023-02-19T07:08:54;97998.91;;;6.27;100.00
53340;BME280;46212;50.258;19.062;2023-02-19T07:11:20;97984.06;;;6.50;100.00
53340;BME280;46212;50.258;19.062;2023-02-19T07:13:45;97992.28;;;6.50;100.00
53340;BME280;46212;50.258;19.062;2023-02-19T07:16:11;97998.50;;;6.50;100.00
53340;BME280;46212;50.258;19.062;2023-02-19T07:18:37;97991.41;;;6.53;100.00
53340;BME280;46212;50.258;19.062;2023-02-19T07:21:04;97973.13;;;6.37;100.00
53340;BME280;46212;50.258;19.062;2023-02-19T07:23:30;97993.81;;;6.51;100.00
53340;BME280;46212;50.258;19.062;2023-02-19T07:25:56;97988.13;;;6.45;100.00
53340;BME280;46212;50.258;19.062;2023-02-19T07:28:21;97992.28;;;6.50;100.00
53340;BME280;46212;50.258;19.062;2023-02-19T07:30:47;97987.69;;;6.47;100.00
53340;BME280;46212;50.258;19.062;2023-02-19T07:33:12;97983.94;;;6.53;100.00
53340;BME280;46212;50.258;19.062;2023-02-19T07:35:47;97997.22;;;6.42;100.00
53340;BME280;46212;50.258;19.062;2023-02-19T07:38:15;97993.28;;;6.43;100.00
53340;BME280;46212;50.258;19.062;2023-02-19T07:40:41;97987.03;;;6.43;100.00
53340;BME280;46212;50.258;19.062;2023-02-19T07:43:06;97986.59;;;6.31;100.00
53340;BME280;46212;50.258;19.062;2023-02-19T07:45:32;97977.84;;;6.36;100.00
53340;BME280;46212;50.258;19.062;2023-02-19T07:47:57;97975.06;;;6.49;100.00
53340;BME280;46212;50.258;19.062;2023-02-19T07:50:22;97961.25;;;6.40;100.00
53340;BME280;46212;50.258;19.062;2023-02-19T07:52:48;97962.22;;;6.46;100.00
53340;BME280;46212;50.258;19.062;2023-02-19T07:55:13;97949.53;;;6.39;100.00
53340;BME280;46212;50.258;19.062;2023-02-19T07:57:39;97950.81;;;6.69;100.00
53340;BME280;46212;50.258;19.062;2023-02-19T08:00:05;97958.50;;;6.74;100.00
53340;BME280;46212;50.258;19.062;2023-02-19T08:02:30;97950.66;;;6.85;100.00
53340;BME280;46212;50.258;19.062;2023-02-19T08:05:14;97947.00;;;6.88;100.00
53340;BME280;46212;50.258;19.062;2023-02-19T08:07:40;97941.00;;;7.03;100.00
53340;BME280;46212;50.258;19.062;2023-02-19T08:10:06;97926.91;;;6.91;100.00
53340;BME280;46212;50.258;19.062;2023-02-19T08:12:57;97937.88;;;7.13;100.00
53340;BME280;46212;50.258;19.062;2023-02-19T08:15:41;97948.66;;;7.08;100.00
53340;BME280;46212;50.258;19.062;2023-02-19T08:18:08;97956.41;;;7.22;100.00
53340;BME280;46212;50.258;19.062;2023-02-19T08:20:33;97953.13;;;7.14;100.00
53340;BME280;46212;50.258;19.062;2023-02-19T08:22:59;97961.13;;;7.21;100.00
53340;BME280;46212;50.258;19.062;2023-02-19T08:25:24;97949.31;;;7.12;100.00
53340;BME280;46212;50.258;19.062;2023-02-19T08:27:50;97950.19;;;7.09;100.00
53340;BME280;46212;50.258;19.062;2023-02-19T08:30:15;97950.16;;;6.78;100.00
53340;BME280;46212;50.258;19.062;2023-02-19T08:32:41;97967.25;;;6.82;100.00
53340;BME280;46212;50.258;19.062;2023-02-19T08:35:06;97965.97;;;6.95;100.00
53340;BME280;46212;50.258;19.062;2023-02-19T08:37:32;97965.72;;;7.03;100.00
53340;BME280;46212;50.258;19.062;2023-02-19T08:39:57;97959.63;;;7.29;100.00
53340;BME280;46212;50.258;19.062;2023-02-19T08:42:23;97967.09;;;7.51;100.00
53340;BME280;46212;50.258;19.062;2023-02-19T08:44:48;97970.31;;;7.58;100.00
53340;BME280;46212;50.258;19.062;2023-02-19T08:47:13;97960.44;;;7.39;100.00
53340;BME280;46212;50.258;19.062;2023-02-19T08:49:39;97972.75;;;7.04;100.00
53340;BME280;46212;50.258;19.062;2023-02-19T08:52:04;97986.22;;;6.89;100.00
53340;BME280;46212;50.258;19.062;2023-02-19T08:54:30;97974.16;;;7.08;100.00
53340;BME280;46212;50.258;19.062;2023-02-19T08:56:55;97977.13;;;7.01;100.00
53340;BME280;46212;50.258;19.062;2023-02-19T08:59:20;97975.94;;;7.02;100.00
53340;BME280;46212;50.258;19.062;2023-02-19T09:01:46;97969.59;;;6.71;100.00
53340;BME280;46212;50.258;19.062;2023-02-19T09:04:12;97969.25;;;6.81;100.00
53340;BME280;46212;50.258;19.062;2023-02-19T09:06:37;97978.94;;;6.95;100.00
53340;BME280;46212;50.258;19.062;2023-02-19T09:09:03;97967.00;;;6.89;100.00
53340;BME280;46212;50.258;19.062;2023-02-19T09:11:29;97984.28;;;6.99;100.00
53340;BME280;46212;50.258;19.062;2023-02-19T09:13:55;97984.16;;;6.80;100.00
53340;BME280;46212;50.258;19.062;2023-02-19T09:16:20;97992.47;;;7.11;100.00
53340;BME280;46212;50.258;19.062;2023-02-19T09:18:46;97990.13;;;7.22;100.00
53340;BME280;46212;50.258;19.062;2023-02-19T09:21:11;97991.03;;;6.98;100.00
53340;BME280;46212;50.258;19.062;2023-02-19T09:23:37;97987.25;;;7.26;100.00
53340;BME280;46212;50.258;19.062;2023-02-19T09:26:03;97992.53;;;7.20;99.55
53340;BME280;46212;50.258;19.062;2023-02-19T09:28:32;97998.41;;;7.10;99.72
53340;BME280;46212;50.258;19.062;2023-02-19T09:31:05;98006.31;;;7.08;100.00
53340;BME280;46212;50.258;19.062;2023-02-19T09:33:31;98010.53;;;7.00;100.00
53340;BME280;46212;50.258;19.062;2023-02-19T09:36:00;97999.75;;;7.05;98.83
53340;BME280;46212;50.258;19.062;2023-02-19T09:38:26;97994.13;;;6.87;99.07
53340;BME280;46212;50.258;19.062;2023-02-19T09:40:54;98020.31;;;7.01;99.06
53340;BME280;46212;50.258;19.062;2023-02-19T09:43:22;98007.38;;;7.23;97.28
53340;BME280;46212;50.258;19.062;2023-02-19T09:46:01;98014.56;;;7.08;94.74
53340;BME280;46212;50.258;19.062;2023-02-19T09:48:27;98023.81;;;7.01;94.91
53340;BME280;46212;50.258;19.062;2023-02-19T09:50:55;98026.44;;;6.70;90.87
53340;BME280;46212;50.258;19.062;2023-02-19T09:53:27;98039.66;;;6.50;90.22
53340;BME280;46212;50.258;19.062;2023-02-19T09:55:54;98042.53;;;6.47;89.93
53340;BME280;46212;50.258;19.062;2023-02-19T09:58:24;98053.06;;;6.48;91.09
53340;BME280;46212;50.258;19.062;2023-02-19T10:00:52;98051.13;;;6.36;91.28
53340;BME280;46212;50.258;19.062;2023-02-19T10:03:30;98047.72;;;6.32;93.41
53340;BME280;46212;50.258;19.062;2023-02-19T10:06:21;98050.91;;;6.30;92.71
53340;BME280;46212;50.258;19.062;2023-02-19T10:08:48;98042.44;;;6.37;93.43
53340;BME280;46212;50.258;19.062;2023-02-19T10:11:14;98059.75;;;6.34;93.00
53340;BME280;46212;50.258;19.062;2023-02-19T10:13:43;98063.94;;;6.39;92.80
53340;BME280;46212;50.258;19.062;2023-02-19T10:16:16;98061.81;;;6.68;91.75
53340;BME280;46212;50.258;19.062;2023-02-19T10:18:44;98065.47;;;6.53;90.61
53340;BME280;46212;50.258;19.062;2023-02-19T10:21:15;98084.22;;;6.41;92.06
53340;BME280;46212;50.258;19.062;2023-02-19T10:23:42;98078.75;;;6.04;93.43
53340;BME280;46212;50.258;19.062;2023-02-19T10:26:08;98094.88;;;6.02;91.83
53340;BME280;46212;50.258;19.062;2023-02-19T10:28:35;98098.50;;;5.99;92.22
53340;BME280;46212;50.258;19.062;2023-02-19T10:31:03;98104.19;;;5.92;91.86
53340;BME280;46212;50.258;19.062;2023-02-19T10:33:30;98109.22;;;5.93;92.54
53340;BME280;46212;50.258;19.062;2023-02-19T10:36:02;98103.75;;;6.06;92.77
53340;BME280;46212;50.258;19.062;2023-02-19T10:38:31;98113.31;;;6.14;91.51
53340;BME280;46212;50.258;19.062;2023-02-19T10:41:06;98106.72;;;6.24;90.65
53340;BME280;46212;50.258;19.062;2023-02-19T10:43:37;98116.25;;;6.45;91.12
53340;BME280;46212;50.258;19.062;2023-02-19T10:46:14;98127.56;;;6.47;90.33
53340;BME280;46212;50.258;19.062;2023-02-19T10:48:45;98118.47;;;6.37;90.21
53340;BME280;46212;50.258;19.062;2023-02-19T10:51:11;98116.00;;;6.77;88.88
53340;BME280;46212;50.258;19.062;2023-02-19T10:53:51;98099.34;;;6.71;87.69
53340;BME280;46212;50.258;19.062;2023-02-19T10:56:27;98129.84;;;6.73;87.75
53340;BME280;46212;50.258;19.062;2023-02-19T10:59:22;98130.94;;;6.63;88.67
53340;BME280;46212;50.258;19.062;2023-02-19T11:02:14;98141.50;;;6.52;87.76
53340;BME280;46212;50.258;19.062;2023-02-19T11:04:41;98132.19;;;6.24;87.72
53340;BME280;46212;50.258;19.062;2023-02-19T11:07:21;98158.38;;;6.25;88.90
53340;BME280;46212;50.258;19.062;2023-02-19T11:09:48;98159.91;;;6.14;88.71
53340;BME280;46212;50.258;19.062;2023-02-19T11:12:24;98173.69;;;5.98;88.83
53340;BME280;46212;50.258;19.062;2023-02-19T11:14:51;98167.38;;;5.84;88.40
53340;BME280;46212;50.258;19.062;2023-02-19T11:17:34;98170.75;;;5.76;88.41
53340;BME280;46212;50.258;19.062;2023-02-19T11:20:12;98176.88;;;5.67;89.03
53340;BME280;46212;50.258;19.062;2023-02-19T11:22:41;98189.16;;;5.75;89.06
53340;BME280;46212;50.258;19.062;2023-02-19T11:30:40;98176.34;;;5.72;85.90
53340;BME280;46212;50.258;19.062;2023-02-19T11:35:40;98165.25;;;5.63;84.58
53340;BME280;46212;50.258;19.062;2023-02-19T11:38:09;98189.34;;;5.68;85.24
53340;BME280;46212;50.258;19.062;2023-02-19T11:40:42;98199.00;;;5.44;85.95
53340;BME280;46212;50.258;19.062;2023-02-19T11:46:01;98208.88;;;5.70;85.71
53340;BME280;46212;50.258;19.062;2023-02-19T11:51:56;98216.53;;;5.92;85.56
53340;BME280;46212;50.258;19.062;2023-02-19T12:00:08;98237.03;;;5.26;86.38
53340;BME280;46212;50.258;19.062;2023-02-19T12:02:58;98249.59;;;5.23;86.89
53340;BME280;46212;50.258;19.062;2023-02-19T12:11:14;98256.03;;;5.17;88.89
53340;BME280;46212;50.258;19.062;2023-02-19T12:21:46;98261.16;;;5.31;87.70
53340;BME280;46212;50.258;19.062;2023-02-19T12:24:52;98265.34;;;5.19;88.59
53340;BME280;46212;50.258;19.062;2023-02-19T12:27:37;98263.63;;;4.93;88.80
53340;BME280;46212;50.258;19.062;2023-02-19T12:40:37;98283.16;;;4.59;89.93
53340;BME280;46212;50.258;19.062;2023-02-19T12:43:14;98279.91;;;4.64;90.30
53340;BME280;46212;50.258;19.062;2023-02-19T12:45:59;98300.78;;;4.74;90.89
53340;BME280;46212;50.258;19.062;2023-02-19T12:48:33;98292.19;;;4.56;90.10
53340;BME280;46212;50.258;19.062;2023-02-19T12:51:19;98293.13;;;4.50;91.13
53340;BME280;46212;50.258;19.062;2023-02-19T12:53:47;98296.06;;;4.59;89.75
53340;BME280;46212;50.258;19.062;2023-02-19T12:56:25;98304.47;;;4.48;90.14
53340;BME280;46212;50.258;19.062;2023-02-19T12:58:57;98311.63;;;4.42;90.22
53340;BME280;46212;50.258;19.062;2023-02-19T13:01:30;98305.03;;;4.20;88.73
53340;BME280;46212;50.258;19.062;2023-02-19T13:06:53;98314.47;;;4.15;89.79
53340;BME280;46212;50.258;19.062;2023-02-19T13:09:29;98324.75;;;4.11;89.27
53340;BME280;46212;50.258;19.062;2023-02-19T13:12:02;98320.88;;;4.28;89.78
53340;BME280;46212;50.258;19.062;2023-02-19T13:14:35;98310.84;;;4.61;86.12
53340;BME280;46212;50.258;19.062;2023-02-19T13:17:16;98333.75;;;4.67;85.27
53340;BME280;46212;50.258;19.062;2023-02-19T13:19:44;98344.91;;;4.76;84.59
53340;BME280;46212;50.258;19.062;2023-02-19T13:22:29;98321.78;;;4.22;85.33
53340;BME280;46212;50.258;19.062;2023-02-19T13:25:17;98334.47;;;4.52;85.58
53340;BME280;46212;50.258;19.062;2023-02-19T13:28:11;98355.69;;;4.83;82.38
53340;BME280;46212;50.258;19.062;2023-02-19T13:30:52;98360.25;;;4.90;80.92
53340;BME280;46212;50.258;19.062;2023-02-19T13:33:39;98365.81;;;4.67;80.76
53340;BME280;46212;50.258;19.062;2023-02-19T13:36:11;98371.19;;;4.90;79.67
53340;BME280;46212;50.258;19.062;2023-02-19T13:38:46;98373.38;;;4.79;81.24
53340;BME280;46212;50.258;19.062;2023-02-19T13:41:34;98384.22;;;4.82;80.16
53340;BME280;46212;50.258;19.062;2023-02-19T13:44:04;98348.94;;;5.40;75.74
53340;BME280;46212;50.258;19.062;2023-02-19T13:46:43;98387.75;;;6.61;71.76
53340;BME280;46212;50.258;19.062;2023-02-19T13:49:39;98395.66;;;7.88;67.98
53340;BME280;46212;50.258;19.062;2023-02-19T13:54:43;98411.38;;;7.12;66.67
53340;BME280;46212;50.258;19.062;2023-02-19T13:57:25;98398.59;;;6.07;67.59
53340;BME280;46212;50.258;19.062;2023-02-19T13:59:53;98407.44;;;5.30;70.55
53340;BME280;46212;50.258;19.062;2023-02-19T14:02:37;98415.72;;;5.10;72.05
53340;BME280;46212;50.258;19.062;2023-02-19T14:05:09;98423.94;;;4.91;72.84
53340;BME280;46212;50.258;19.062;2023-02-19T14:07:53;98406.69;;;4.94;74.20
53340;BME280;46212;50.258;19.062;2023-02-19T14:13:53;98421.63;;;5.45;72.84
53340;BME280;46212;50.258;19.062;2023-02-19T14:33:32;98452.56;;;4.66;75.59
53340;BME280;46212;50.258;19.062;2023-02-19T14:39:03;98456.66;;;4.78;74.86
53340;BME280;46212;50.258;19.062;2023-02-19T14:41:32;98457.44;;;4.78;75.34
53340;BME280;46212;50.258;19.062;2023-02-19T14:44:01;98469.06;;;4.63;75.60